createdAt,value
2022-07-29T00:00:23.890Z,100.00
2022-07-29T00:15:23.611Z,100.00
2022-07-29T00:30:23.498Z,100.00
2022-07-29T00:45:23.516Z,100.00
2022-07-29T01:00:23.828Z,100.00
2022-07-29T01:15:23.659Z,100.00
2022-07-29T01:30:23.575Z,100.00
2022-07-29T01:45:23.750Z,100.00
2022-07-29T02:00:23.661Z,100.00
2022-07-29T02:15:23.730Z,100.00
2022-07-29T02:30:23.680Z,100.00
2022-07-29T02:45:23.777Z,100.00
2022-07-29T03:00:23.697Z,100.00
2022-07-29T03:15:24.768Z,100.00
2022-07-29T03:30:24.093Z,100.00
2022-07-29T03:45:23.796Z,100.00
2022-07-29T04:00:24.438Z,100.00
2022-07-29T04:15:23.875Z,100.00
2022-07-29T04:30:23.881Z,100.00
2022-07-29T04:45:23.916Z,100.00
2022-07-29T05:00:23.988Z,100.00
2022-07-29T05:15:23.896Z,100.00
2022-07-29T05:30:23.932Z,100.00
2022-07-29T05:45:24.016Z,100.00
2022-07-29T06:00:23.954Z,100.00
2022-07-29T06:15:24.041Z,100.00
2022-07-29T06:30:24.193Z,100.00
2022-07-29T06:45:24.081Z,100.00
2022-07-29T07:00:24.369Z,100.00
2022-07-29T07:15:38.486Z,100.00
2022-07-29T07:30:24.067Z,100.00
2022-07-29T07:45:24.152Z,100.00
2022-07-29T08:00:24.216Z,100.00
2022-07-29T08:15:24.073Z,100.00
2022-07-29T08:30:24.187Z,100.00
2022-07-29T08:45:24.295Z,100.00
2022-07-29T09:00:24.187Z,100.00
2022-07-29T09:15:33.317Z,100.00
2022-07-29T09:30:33.000Z,100.00
2022-07-29T09:45:33.337Z,96.43
2022-07-29T10:00:33.385Z,94.53
2022-07-29T10:15:23.460Z,95.50
2022-07-29T10:30:23.248Z,83.20
2022-07-29T10:45:23.368Z,84.70
2022-07-29T11:00:24.741Z,100.00
2022-07-29T11:15:25.062Z,85.77
2022-07-29T11:30:25.201Z,79.30
2022-07-29T11:45:43.678Z,77.67
2022-07-29T12:00:26.525Z,74.90
2022-07-29T12:15:23.410Z,96.00
2022-07-29T12:30:23.333Z,92.47
2022-07-29T12:45:23.479Z,92.03
2022-07-29T13:00:23.636Z,89.30
2022-07-29T13:15:24.181Z,95.77
2022-07-29T13:30:23.703Z,97.77
2022-07-29T13:45:23.419Z,100.00
2022-07-29T14:00:23.865Z,100.00
2022-07-29T14:15:23.474Z,100.00
2022-07-29T14:30:23.384Z,100.00
2022-07-29T14:45:23.485Z,100.00
2022-07-29T15:00:23.519Z,100.00
2022-07-29T15:15:24.032Z,100.00
2022-07-29T15:30:32.823Z,100.00
2022-07-29T15:45:23.529Z,100.00
2022-07-29T16:00:23.904Z,100.00
2022-07-29T16:15:23.847Z,100.00
2022-07-29T16:30:24.337Z,100.00
2022-07-29T16:45:23.981Z,100.00
2022-07-29T17:00:24.019Z,100.00
2022-07-29T17:15:23.928Z,100.00
2022-07-29T17:30:23.987Z,100.00
2022-07-29T17:45:24.249Z,100.00
2022-07-29T18:00:24.067Z,100.00
2022-07-29T18:15:24.436Z,100.00
2022-07-29T18:30:24.049Z,100.00
2022-07-29T18:45:28.591Z,100.00
2022-07-29T19:00:24.527Z,100.00
2022-07-29T19:15:24.090Z,100.00
2022-07-29T19:30:23.889Z,100.00
2022-07-29T19:45:24.144Z,100.00
2022-07-29T20:00:24.334Z,100.00
2022-07-29T20:15:24.178Z,100.00
2022-07-29T20:30:24.322Z,100.00
2022-07-29T20:45:24.281Z,100.00
2022-07-29T21:00:25.237Z,100.00
2022-07-29T21:15:24.398Z,100.00
2022-07-29T21:30:33.326Z,100.00
2022-07-29T21:45:33.350Z,100.00
2022-07-29T22:15:23.412Z,100.00
2022-07-29T22:30:23.326Z,100.00
2022-07-29T22:45:23.442Z,100.00
2022-07-29T23:00:23.972Z,100.00
2022-07-29T23:15:23.528Z,100.00
2022-07-29T23:30:23.676Z,100.00
2022-07-29T23:45:23.496Z,100.00
